This is the latest recevied weather packets stored in our database for station/object N6SPP. If no packets are shown the sender has not sent any weather packets the latest 10 day(s).
| Time | Temp. | Humidity | Pressure | Rain* | Wind** | Luminosity | Snow |
|---|---|---|---|---|---|---|---|
| 1778083389 | 16.67° C | 73% | 1022.5 hPa | 0 mm | - | 288 W/m² | - |
| 1778083087 | 16.11° C | 74% | 1022.5 hPa | 0 mm | - | 286 W/m² | - |
| 1778082784 | 16.11° C | 74% | 1022.8 hPa | 0 mm | - | 243 W/m² | - |
| 1778081656 | 15° C | 77% | 1022.9 hPa | 0 mm | - | 210 W/m² | - |
| 1778081354 | 15° C | 77% | 1022.8 hPa | 0 mm | - | 180 W/m² | - |
| 1778081050 | 15° C | 78% | 1022.8 hPa | 0 mm | - | 170 W/m² | - |
| 1778080749 | 15° C | 78% | 1022.7 hPa | 0 mm | - | 162 W/m² | - |
| 1778080445 | 14.44° C | 78% | 1022.7 hPa | 0 mm | - | 149 W/m² | - |
| 1778080143 | 14.44° C | 78% | 1022.7 hPa | 0 mm | - | 144 W/m² | - |
| 1778079839 | 15° C | 78% | 1022.7 hPa | 0 mm | - | 138 W/m² | - |
| 1778079536 | 15° C | 78% | 1022.7 hPa | 0 mm | - | 139 W/m² | - |
| 1778079232 | 14.44° C | 78% | 1022.7 hPa | 0 mm | - | 131 W/m² | - |
| 1778078930 | 14.44° C | 78% | 1022.7 hPa | 0 mm | - | 123 W/m² | - |
| 1778078626 | 14.44° C | 79% | 1022.7 hPa | 0 mm | - | 104 W/m² | - |
| 1778078325 | 14.44° C | 79% | 1022.7 hPa | 0 mm | - | 99 W/m² | - |
| 1778078021 | 13.89° C | 80% | 1022.5 hPa | 0 mm | - | 92 W/m² | - |
| 1778077720 | 13.89° C | 80% | 1022.4 hPa | 0 mm | - | 83 W/m² | - |
| 1778077417 | 13.89° C | 80% | 1022.5 hPa | 0 mm | - | 72 W/m² | - |
| 1778077115 | 13.89° C | 80% | 1022.4 hPa | 0 mm | - | 63 W/m² | - |
| 1778076813 | 13.89° C | 80% | 1022.4 hPa | 0 mm | - | 61 W/m² | - |
| 1778076511 | 13.89° C | 80% | 1022.3 hPa | 0 mm | - | 57 W/m² | - |
| 1778076208 | 13.89° C | 80% | 1022.1 hPa | 0 mm | - | 49 W/m² | - |
| 1778075905 | 13.33° C | 80% | 1022.2 hPa | 0 mm | - | 41 W/m² | - |
| 1778075601 | 13.33° C | 81% | 1022.1 hPa | 0 mm | - | 36 W/m² | - |
| 1778075298 | 13.33° C | 81% | 1022.1 hPa | 0 mm | - | 30 W/m² | - |
* Rain latest hour (hover to see other rain measurements)
** Current wind speed in m/s (hover to see current wind gust speed)